Hovedside
METAR-TAF:

METAR-TAF

Lufthavner :

Tanna, Vanuatu

breddegrad: 19-27-18S, lengdegrad: 169-13-26E, høyde over havet: 6 m

Gjeldene værobservasjon

Denne rapporten ble laget for 1 time og 24 minutter siden, klokken 02:00 UTC
Vind 6 kt fra Sør
Temperatur 25°C
Luftfuktighet 89%
Trykk 1012 hPa
Sikt 10 km eller mer
Spredte skyer i en høyde av 2000 ft
Overskyet i en høyde av 4000 ft

METAR: NVVW 200200Z 18006KT 9999 SCT020 OVC040 25/23 Q1012

Tid: 14:24 (03:24 UTC)

Varsel

Denne rapporten ble laget for 4 timer og 24 minutter siden, klokken 23:00 UTC
Varsel gyldig fra 20. klokken 00 UTC til 20. klokken 24 UTC
Vind 9 kt fra Sørøst
Sikt: 9000 m
Spredte skyer i en høyde av 1800 ft
Brutte skyer i en høyde av 3800 ft
Spredte skyer i en høyde av 1200 ft
Brutte skyer i en høyde av 1600 ft
Overskyet i en høyde av 3500 ft
regnbyger,

TAF: NVVW 192300Z 2000/2024 13009KT 9999 SCT018 BKN038 INTER 2000/2006 9000 SHRA SCT012 BKN016 OVC035

Værobservasjoner og værvarsel for over 4000 flyplasser (METAR- og TAF-rapporter).

Tilgjengelige stasjoner er representert av de røde og gule prikkene på kartet.

Hold musepekeren over prikken for å se navnet på stasjonen.

Klikk så for å se værobservasjoner og -varsler.

For å forandre kartet kan du klikke på den grønne knappen med svart kryss for å zoome inn, på den grønne knappen med strek for å zoome ut, eller på de grønne pilene for å se tilstøtende kart.


METAR-TAF: